Time;durP1;ratioP1;P1;durP2;ratioP2;P2;SDS_P1;SDS_P2;PMS_P1;PMS_P2;Temp;Humidity;BMP_temperature;BMP_pressure;BME280_temperature;BME280_humidity;BME280_pressure;Samples;Min_cycle;Max_cycle;Signal;HPM_P1;HPM_P2
2021/10/08 00:02:16;;;;;;;18.60;8.00;;;;;;;12.89;100.00;102058.22;4881996;29;20060;-73
2021/10/08 00:05:02;;;;;;;22.10;8.25;;;;;;;12.64;100.00;102066.22;4881897;29;20060;-72
2021/10/08 00:07:48;;;;;;;19.50;8.07;;;;;;;12.79;100.00;102067.06;4881699;29;20400;-72
2021/10/08 00:10:34;;;;;;;21.67;8.63;;;;;;;12.87;100.00;102072.25;4881728;29;20052;-72
2021/10/08 00:13:20;;;;;;;21.83;8.05;;;;;;;12.88;100.00;102061.75;4881307;29;20437;-73
2021/10/08 00:16:06;;;;;;;21.52;8.68;;;;;;;13.15;100.00;102071.25;4867417;29;20036;-73
2021/10/08 00:18:52;;;;;;;21.90;9.05;;;;;;;12.74;100.00;102068.81;4881260;29;20033;-73
2021/10/08 00:21:38;;;;;;;22.55;9.07;;;;;;;12.79;100.00;102059.16;4868639;29;20037;-74
2021/10/08 00:24:23;;;;;;;26.63;8.85;;;;;;;12.62;100.00;102065.38;4881417;29;20059;-73
2021/10/08 00:27:09;;;;;;;24.08;8.65;;;;;;;12.61;100.00;102055.72;4883879;29;20036;-73
2021/10/08 00:29:55;;;;;;;20.70;8.73;;;;;;;12.72;100.00;102062.69;4884092;29;20127;-73
2021/10/08 00:32:41;;;;;;;21.35;8.88;;;;;;;12.70;100.00;102061.81;4884926;29;20029;-72
2021/10/08 00:35:27;;;;;;;20.17;8.85;;;;;;;12.62;100.00;102053.09;4885174;29;20033;-72
2021/10/08 00:38:13;;;;;;;26.52;8.82;;;;;;;12.56;100.00;102054.88;4885003;29;20465;-72
2021/10/08 00:40:58;;;;;;;19.23;9.05;;;;;;;12.46;100.00;102063.69;4885115;29;20096;-73
2021/10/08 00:43:46;;;;;;;26.92;8.27;;;;;;;12.73;100.00;102060.91;4884603;29;20036;-72
2021/10/08 00:46:31;;;;;;;16.35;8.57;;;;;;;12.69;100.00;102067.97;4884966;29;20056;-72
2021/10/08 00:49:17;;;;;;;26.45;9.57;;;;;;;12.79;100.00;102060.91;4883783;29;20032;-72
2021/10/08 00:52:03;;;;;;;22.08;9.30;;;;;;;12.76;100.00;102053.91;4884753;29;20029;-73
2021/10/08 00:54:49;;;;;;;25.83;10.15;;;;;;;12.50;100.00;102040.00;4884088;29;20029;-73
2021/10/08 00:57:34;;;;;;;25.15;9.55;;;;;;;12.49;100.00;102045.25;4884409;29;20048;-72
2021/10/08 01:00:20;;;;;;;25.00;9.52;;;;;;;12.66;100.00;102040.81;4884208;29;20033;-73
2021/10/08 01:03:06;;;;;;;22.27;9.75;;;;;;;12.81;100.00;102046.88;4884097;29;20044;-73
2021/10/08 01:05:52;;;;;;;27.38;10.40;;;;;;;12.61;100.00;102048.72;4883264;29;20055;-73
2021/10/08 01:08:39;;;;;;;23.40;9.45;;;;;;;12.48;100.00;102046.16;4883781;29;20112;-73
2021/10/08 01:11:24;;;;;;;25.38;9.73;;;;;;;12.46;100.00;102051.41;4884229;29;20115;-72
2021/10/08 01:14:11;;;;;;;24.77;9.40;;;;;;;12.66;100.00;102057.44;4884545;29;20446;-72
2021/10/08 01:16:57;;;;;;;25.00;9.40;;;;;;;12.60;100.00;102052.25;4884053;29;20037;-72
2021/10/08 01:19:43;;;;;;;18.33;9.52;;;;;;;12.79;100.00;102055.66;4883765;29;20040;-72
2021/10/08 01:22:29;;;;;;;30.40;9.98;;;;;;;13.08;100.00;102064.28;4883825;29;20029;-72
2021/10/08 01:25:16;;;;;;;17.50;9.75;;;;;;;13.06;100.00;102058.16;4883601;29;20055;-73
2021/10/08 01:28:05;;;;;;;22.42;9.43;;;;;;;12.96;100.00;102059.06;4883880;29;20521;-73
2021/10/08 01:30:51;;;;;;;22.85;10.25;;;;;;;12.84;100.00;102061.75;4870075;29;20351;-72
2021/10/08 01:33:37;;;;;;;20.75;9.45;;;;;;;12.78;100.00;102064.44;4884218;29;20096;-73
2021/10/08 01:36:23;;;;;;;20.67;9.27;;;;;;;12.66;100.00;102067.97;4883240;29;20029;-72
2021/10/08 01:39:09;;;;;;;21.95;9.38;;;;;;;12.79;100.00;102058.28;4882731;29;20060;-72
2021/10/08 01:41:54;;;;;;;26.70;9.35;;;;;;;12.68;100.00;102055.69;4883417;29;20115;-73
2021/10/08 01:44:41;;;;;;;20.52;9.40;;;;;;;12.69;100.00;102057.44;4883489;29;20052;-72
2021/10/08 01:47:27;;;;;;;22.85;10.00;;;;;;;12.82;100.00;102050.38;4883474;29;20480;-72
2021/10/08 01:50:13;;;;;;;22.20;9.40;;;;;;;12.64;100.00;102051.34;4882737;29;20489;-72
2021/10/08 01:52:59;;;;;;;23.40;9.27;;;;;;;12.39;100.00;102046.19;4883246;29;20051;-72
2021/10/08 01:55:45;;;;;;;20.10;9.70;;;;;;;12.73;100.00;102063.56;4882503;29;20029;-73
2021/10/08 01:58:31;;;;;;;23.60;9.70;;;;;;;12.80;100.00;102052.13;4883793;29;20052;-72
2021/10/08 02:01:17;;;;;;;22.10;9.88;;;;;;;12.83;100.00;102046.84;4883381;29;20029;-72
2021/10/08 02:04:03;;;;;;;25.63;10.00;;;;;;;12.97;100.00;102052.91;4883530;29;20616;-72
2021/10/08 02:06:49;;;;;;;24.65;9.68;;;;;;;12.47;100.00;102052.28;4882081;29;20057;-72
2021/10/08 02:09:35;;;;;;;19.80;9.77;;;;;;;12.71;100.00;102057.44;4883316;29;20044;-72
2021/10/08 02:12:21;;;;;;;30.10;10.63;;;;;;;12.69;100.00;102056.56;4869847;29;20043;-72
2021/10/08 02:15:07;;;;;;;18.20;9.13;;;;;;;12.84;100.00;102057.38;4883000;29;20071;-72
2021/10/08 02:17:54;;;;;;;29.90;10.10;;;;;;;12.59;100.00;102053.13;4869635;29;20049;-72
2021/10/08 02:20:40;;;;;;;24.48;9.27;;;;;;;12.74;100.00;102060.91;4882665;29;20036;-72
2021/10/08 02:23:26;;;;;;;30.25;9.68;;;;;;;12.88;100.00;102067.00;4882436;29;20521;-72
2021/10/08 02:26:12;;;;;;;30.13;9.82;;;;;;;12.88;100.00;102067.00;4882980;29;20060;-73
2021/10/08 02:28:58;;;;;;;26.10;9.75;;;;;;;12.75;100.00;102072.31;4883139;29;20032;-73
2021/10/08 02:31:44;;;;;;;26.48;9.65;;;;;;;12.69;100.00;102073.22;4882550;29;20037;-73
2021/10/08 02:34:30;;;;;;;22.33;8.85;;;;;;;12.97;100.00;102068.69;4882086;29;20029;-73
2021/10/08 02:37:16;;;;;;;21.98;8.85;;;;;;;12.60;100.00;102072.38;4882184;29;20052;-72
2021/10/08 02:40:03;;;;;;;20.90;10.10;;;;;;;12.36;100.00;102080.34;4882386;29;20025;-72
2021/10/08 02:42:49;;;;;;;24.60;8.63;;;;;;;12.49;100.00;102085.56;4868716;29;20040;-73
2021/10/08 02:45:34;;;;;;;25.00;9.07;;;;;;;12.40;100.00;102085.63;4882665;29;20037;-72
2021/10/08 02:48:20;;;;;;;20.95;8.73;;;;;;;12.43;100.00;102090.88;4882167;29;20401;-73
2021/10/08 02:51:06;;;;;;;22.48;9.07;;;;;;;12.60;100.00;102089.03;4882312;29;20044;-73
2021/10/08 02:53:52;;;;;;;22.48;9.82;;;;;;;12.49;100.00;102088.22;4882246;29;20025;-73
2021/10/08 02:56:38;;;;;;;25.00;9.75;;;;;;;12.63;100.00;102089.03;4882649;29;20044;-72
2021/10/08 02:59:23;;;;;;;25.60;10.65;;;;;;;12.48;100.00;102094.34;4881576;29;20403;-73
2021/10/08 03:02:09;;;;;;;29.20;11.23;;;;;;;12.69;100.00;102094.25;4882060;29;20043;-72
2021/10/08 03:04:55;;;;;;;21.70;11.00;;;;;;;12.52;100.00;102097.84;4881182;29;20036;-72
2021/10/08 03:07:41;;;;;;;26.40;9.88;;;;;;;12.19;100.00;102082.16;4881865;29;20368;-72
2021/10/08 03:10:26;;;;;;;26.17;9.85;;;;;;;12.33;100.00;102081.25;4869390;29;20044;-73
2021/10/08 03:13:12;;;;;;;24.83;9.80;;;;;;;12.21;100.00;102080.41;4881804;29;20068;-72
2021/10/08 03:15:58;;;;;;;24.80;10.55;;;;;;;12.28;100.00;102082.13;4882642;29;20450;-72
2021/10/08 03:18:44;;;;;;;23.02;10.10;;;;;;;12.15;100.00;102077.78;4882052;29;20152;-72
2021/10/08 03:21:29;;;;;;;23.88;10.15;;;;;;;12.28;100.00;102082.13;4881428;29;20116;-74
2021/10/08 03:24:15;;;;;;;28.17;10.75;;;;;;;12.22;100.00;102082.16;4881879;29;20092;-74
2021/10/08 03:27:01;;;;;;;27.70;10.95;;;;;;;12.67;100.00;102072.38;4881397;29;20061;-75
2021/10/08 03:29:47;;;;;;;27.23;11.68;;;;;;;12.52;100.00;102077.69;4868176;29;20387;-74
2021/10/08 03:32:33;;;;;;;29.60;11.95;;;;;;;12.54;100.00;102075.06;4868750;29;20060;-74
2021/10/08 03:35:18;;;;;;;29.10;11.25;;;;;;;12.31;100.00;102088.28;4880903;29;20430;-74
2021/10/08 03:38:11;;;;;;;30.48;11.63;;;;;;;12.17;100.00;102076.91;4881153;29;20037;-74
2021/10/08 03:43:53;;;;;;;29.67;11.50;;;;;;;12.38;100.00;102084.72;4881090;29;20032;-74
2021/10/08 03:46:44;;;;;;;32.97;11.30;;;;;;;12.67;100.00;102080.25;4881892;29;20025;-74
2021/10/08 03:49:29;;;;;;;29.65;11.82;;;;;;;12.60;100.00;102085.53;4881543;29;20037;-74
2021/10/08 03:52:15;;;;;;;33.45;12.07;;;;;;;12.78;100.00;102083.69;4881365;29;20084;-74
2021/10/08 03:55:01;;;;;;;30.00;11.25;;;;;;;12.41;100.00;102082.09;4881399;29;20067;-74
2021/10/08 03:57:47;;;;;;;35.22;12.20;;;;;;;12.31;100.00;102085.66;4881280;29;20421;-74
2021/10/08 04:00:33;;;;;;;34.10;12.25;;;;;;;12.56;100.00;102095.19;4881372;29;20033;-74
2021/10/08 04:03:18;;;;;;;38.08;11.07;;;;;;;12.61;100.00;102087.28;4884929;29;20040;-74
2021/10/08 04:06:04;;;;;;;31.50;10.77;;;;;;;12.62;100.00;102087.28;4884936;29;20351;-74
2021/10/08 04:08:50;;;;;;;30.10;10.80;;;;;;;12.37;100.00;102090.88;4871780;29;20097;-74
2021/10/08 04:11:36;;;;;;;27.92;10.88;;;;;;;12.24;100.00;102089.16;4885068;29;20437;-74
2021/10/08 04:14:22;;;;;;;31.65;11.25;;;;;;;12.23;100.00;102084.78;4871310;29;20462;-74
2021/10/08 04:17:07;;;;;;;34.60;11.23;;;;;;;12.23;100.00;102087.41;4884630;29;20092;-75
2021/10/08 04:19:53;;;;;;;37.58;12.75;;;;;;;11.98;100.00;102085.69;4871166;29;20032;-74
2021/10/08 04:22:39;;;;;;;35.25;12.32;;;;;;;12.10;100.00;102093.56;4871643;29;20037;-74
2021/10/08 04:25:25;;;;;;;33.92;12.45;;;;;;;12.22;100.00;102090.91;4884658;29;20029;-74
2021/10/08 04:28:10;;;;;;;35.55;12.40;;;;;;;12.19;100.00;102106.69;4884901;29;20419;-74
2021/10/08 04:30:57;;;;;;;27.05;12.43;;;;;;;12.26;100.00;102107.56;4883960;29;20037;-74
2021/10/08 04:33:43;;;;;;;34.50;11.55;;;;;;;12.16;100.00;102111.06;4871040;29;20045;-74
2021/10/08 04:36:28;;;;;;;34.72;11.45;;;;;;;12.24;100.00;102123.31;4884470;29;20029;-74
2021/10/08 04:39:14;;;;;;;49.17;11.35;;;;;;;11.93;100.00;102105.84;4884715;29;20120;-74
2021/10/08 04:42:00;;;;;;;28.92;11.50;;;;;;;12.20;100.00;102110.19;4884881;29;20071;-74
2021/10/08 04:44:46;;;;;;;37.28;11.90;;;;;;;12.31;100.00;102111.94;4884658;29;20034;-74
2021/10/08 04:47:32;;;;;;;39.17;11.25;;;;;;;12.11;100.00;102113.72;4883745;29;20033;-74
2021/10/08 04:50:17;;;;;;;34.05;11.38;;;;;;;12.08;100.00;102108.47;4884563;29;20373;-74
2021/10/08 04:53:20;;;;;;;34.40;11.60;;;;;;;11.82;100.00;102109.38;4883860;29;20462;-73
2021/10/08 04:56:06;;;;;;;30.13;12.30;;;;;;;11.82;100.00;102110.22;4884225;29;20077;-74
2021/10/08 04:58:52;;;;;;;41.90;12.32;;;;;;;12.00;100.00;102122.47;4884843;29;20366;-74
2021/10/08 05:01:37;;;;;;;37.22;11.25;;;;;;;11.79;100.00;102127.75;4883628;29;20128;-74
2021/10/08 05:04:23;;;;;;;31.52;12.35;;;;;;;11.83;100.00;102119.88;4884135;29;20091;-74
2021/10/08 05:07:09;;;;;;;36.97;12.10;;;;;;;11.95;100.00;102124.22;4884030;29;20045;-74
2021/10/08 05:09:55;;;;;;;37.13;12.23;;;;;;;12.04;100.00;102122.47;4885440;29;20041;-73
2021/10/08 05:12:41;;;;;;;36.45;11.85;;;;;;;11.90;100.00;102126.84;4882418;29;20404;-73
2021/10/08 05:15:26;;;;;;;33.25;10.38;;;;;;;11.60;100.00;102137.38;4884706;29;20039;-74
2021/10/08 05:18:12;;;;;;;39.05;10.05;;;;;;;11.75;100.00;102149.63;4883787;29;20040;-74
2021/10/08 05:20:58;;;;;;;42.33;10.15;;;;;;;11.62;100.00;102147.88;4882869;29;20044;-74
2021/10/08 05:23:44;;;;;;;40.70;11.88;;;;;;;11.62;100.00;102158.38;4870243;29;20092;-74
2021/10/08 05:26:30;;;;;;;26.15;10.70;;;;;;;11.61;100.00;102156.63;4882823;29;20029;-73
2021/10/08 05:29:16;;;;;;;35.97;10.88;;;;;;;12.16;100.00;102151.38;4870336;29;20033;-74
2021/10/08 05:32:02;;;;;;;38.78;10.00;;;;;;;12.09;100.00;102148.75;4883928;29;20036;-75
2021/10/08 05:34:47;;;;;;;48.63;11.18;;;;;;;12.17;100.00;102158.38;4883985;29;20104;-74
2021/10/08 05:37:33;;;;;;;32.63;10.02;;;;;;;11.95;100.00;102161.00;4883700;29;20119;-73
2021/10/08 05:40:19;;;;;;;44.63;11.50;;;;;;;11.63;100.00;102166.25;4882934;29;20033;-75
2021/10/08 05:43:05;;;;;;;30.63;10.70;;;;;;;11.71;100.00;102169.75;4869357;29;20025;-73
2021/10/08 05:45:51;;;;;;;37.90;11.35;;;;;;;11.88;100.00;102175.88;4883470;29;20033;-74
2021/10/08 05:48:36;;;;;;;33.17;9.90;;;;;;;12.27;100.00;102167.13;4883467;29;20063;-74
2021/10/08 05:51:22;;;;;;;32.17;9.35;;;;;;;12.02;100.00;102186.41;4883580;29;20060;-74
2021/10/08 05:54:08;;;;;;;30.00;8.95;;;;;;;11.73;100.00;102183.75;4883320;29;20088;-74
2021/10/08 05:56:54;;;;;;;22.45;8.10;;;;;;;11.76;100.00;102178.50;4883252;29;20459;-75
2021/10/08 05:59:41;;;;;;;26.52;7.90;;;;;;;11.85;100.00;102170.63;4883978;29;20045;-74
2021/10/08 06:02:27;;;;;;;29.73;9.40;;;;;;;11.90;100.00;102187.25;4883359;29;20052;-74
2021/10/08 06:05:12;;;;;;;26.45;8.90;;;;;;;11.70;100.00;102189.00;4869972;29;20037;-74
2021/10/08 06:07:58;;;;;;;28.73;9.50;;;;;;;11.86;100.00;102193.38;4869564;29;20127;-75
2021/10/08 06:10:44;;;;;;;25.23;8.70;;;;;;;11.57;100.00;102195.06;4883003;29;20138;-73
2021/10/08 06:13:32;;;;;;;31.77;8.98;;;;;;;11.54;100.00;102191.56;4882526;29;20458;-73
2021/10/08 06:16:18;;;;;;;35.83;8.88;;;;;;;11.43;100.00;102191.56;4882947;29;20097;-73
2021/10/08 06:19:03;;;;;;;35.42;8.15;;;;;;;11.53;100.00;102193.31;4883371;29;20040;-73
2021/10/08 06:21:49;;;;;;;35.03;7.93;;;;;;;11.56;100.00;102206.44;4882157;29;20367;-75
2021/10/08 06:24:35;;;;;;;30.80;8.32;;;;;;;11.33;100.00;102194.16;4869362;29;20029;-74
2021/10/08 06:27:21;;;;;;;32.80;8.05;;;;;;;11.50;100.00;102201.19;4882672;29;20075;-74
2021/10/08 06:30:11;;;;;;;29.00;7.80;;;;;;;11.68;100.00;102192.50;4882422;29;20100;-74
2021/10/08 06:32:57;;;;;;;29.60;7.78;;;;;;;11.48;100.00;102186.28;4882713;29;20035;-74
2021/10/08 06:35:43;;;;;;;24.65;7.05;;;;;;;11.67;100.00;102186.38;4882454;29;20470;-73
2021/10/08 06:38:28;;;;;;;33.10;7.82;;;;;;;11.49;100.00;102188.94;4883061;29;20028;-74
2021/10/08 06:41:14;;;;;;;31.48;7.40;;;;;;;11.59;100.00;102193.34;4882025;29;20466;-74
2021/10/08 06:44:00;;;;;;;27.80;7.82;;;;;;;11.34;100.00;102190.66;4883353;29;20120;-74
2021/10/08 06:46:46;;;;;;;24.33;6.38;;;;;;;11.32;100.00;102184.50;4881854;29;20040;-74
2021/10/08 06:49:33;;;;;;;26.05;7.45;;;;;;;11.51;100.00;102176.69;4882278;29;20028;-74
2021/10/08 06:52:19;;;;;;;31.48;7.45;;;;;;;11.58;100.00;102172.34;4881791;29;20032;-74
2021/10/08 06:55:05;;;;;;;26.52;7.47;;;;;;;11.85;100.00;102165.38;4881841;29;20052;-75
2021/10/08 06:57:51;;;;;;;31.98;7.68;;;;;;;11.75;100.00;102171.53;4881711;29;20036;-74
2021/10/08 07:00:37;;;;;;;27.45;7.10;;;;;;;11.89;100.00;102159.25;4882193;29;20103;-73
2021/10/08 07:03:23;;;;;;;36.22;6.97;;;;;;;11.58;100.00;102162.69;4882239;29;20025;-74
2021/10/08 07:06:09;;;;;;;37.35;8.00;;;;;;;11.50;100.00;102163.56;4867961;29;20133;-74
2021/10/08 07:08:55;;;;;;;33.13;7.53;;;;;;;11.74;100.00;102158.38;4881831;29;20149;-74
2021/10/08 07:11:41;;;;;;;34.72;7.40;;;;;;;11.64;100.00;102151.34;4881897;29;20096;-74
2021/10/08 07:14:27;;;;;;;28.90;8.88;;;;;;;11.51;100.00;102152.19;4881977;29;20037;-74
2021/10/08 07:17:13;;;;;;;27.25;8.45;;;;;;;11.49;100.00;102157.44;4881859;29;20040;-73
2021/10/08 07:19:58;;;;;;;29.45;7.93;;;;;;;11.58;100.00;102162.69;4881951;29;20088;-74
2021/10/08 07:22:44;;;;;;;32.92;8.75;;;;;;;11.84;99.37;102171.50;4882202;29;20053;-74
2021/10/08 07:25:31;;;;;;;37.38;8.68;;;;;;;11.52;99.87;102146.06;4881675;29;20108;-74
2021/10/08 07:28:18;;;;;;;29.02;8.20;;;;;;;11.45;100.00;102160.91;4882117;29;20029;-74
2021/10/08 07:31:04;;;;;;;37.25;9.63;;;;;;;11.60;100.00;102168.88;4881508;29;20462;-75
2021/10/08 07:33:53;;;;;;;26.45;8.85;;;;;;;11.48;99.97;102170.53;4869116;29;20442;-74
2021/10/08 07:36:38;;;;;;;30.20;8.38;;;;;;;11.24;100.00;102180.97;4883465;29;20161;-73
2021/10/08 07:39:24;;;;;;;30.80;9.07;;;;;;;11.24;100.00;102181.88;4885795;29;20039;-73
2021/10/08 07:42:13;;;;;;;30.45;9.30;;;;;;;11.31;98.62;102183.66;4885516;29;20100;-74
2021/10/08 07:44:58;;;;;;;34.42;9.15;;;;;;;11.28;99.73;102181.00;4885795;29;20462;-73
2021/10/08 07:47:44;;;;;;;29.88;9.45;;;;;;;11.17;99.73;102180.09;4885785;29;20410;-73
2021/10/08 07:50:30;;;;;;;29.73;9.07;;;;;;;11.10;100.00;102161.72;4885414;29;20060;-74
2021/10/08 07:53:16;;;;;;;32.25;9.25;;;;;;;11.11;100.00;102156.47;4885195;29;20033;-73
2021/10/08 07:56:02;;;;;;;25.33;9.02;;;;;;;11.18;100.00;102155.63;4885371;29;20420;-75
2021/10/08 07:58:48;;;;;;;31.60;7.93;;;;;;;11.17;99.60;102151.22;4884975;29;20534;-72
2021/10/08 08:01:34;;;;;;;27.60;8.30;;;;;;;11.25;98.84;102151.28;4884956;29;20040;-73
2021/10/08 08:04:20;;;;;;;28.52;8.50;;;;;;;11.42;97.45;102133.81;4885584;29;20039;-73
2021/10/08 08:07:05;;;;;;;24.67;7.85;;;;;;;11.08;100.00;102132.84;4884720;29;20188;-73
2021/10/08 08:09:51;;;;;;;27.55;8.73;;;;;;;11.00;100.00;102128.44;4885363;29;20451;-73
2021/10/08 08:12:40;;;;;;;31.77;8.13;;;;;;;11.00;100.00;102124.09;4884500;29;20459;-72
2021/10/08 08:15:26;;;;;;;26.20;7.65;;;;;;;11.35;98.55;102134.66;4884307;29;20029;-71
2021/10/08 08:18:12;;;;;;;28.17;7.75;;;;;;;11.20;98.77;102132.88;4885149;29;20536;-72
2021/10/08 08:20:57;;;;;;;32.20;7.85;;;;;;;11.67;96.85;102126.00;4884858;29;20112;-72
2021/10/08 08:23:43;;;;;;;26.50;8.05;;;;;;;11.63;96.21;102129.50;4884791;29;20383;-72
2021/10/08 08:26:29;;;;;;;39.75;8.77;;;;;;;11.65;95.84;102142.63;4885321;29;20025;-72
2021/10/08 08:29:15;;;;;;;28.58;8.77;;;;;;;11.77;93.74;102158.38;4884660;29;20043;-72
2021/10/08 08:32:01;;;;;;;27.40;8.35;;;;;;;11.90;94.77;102171.50;4884663;29;20387;-72
2021/10/08 08:34:49;;;;;;;28.90;8.73;;;;;;;11.96;95.07;102171.53;4884907;29;20055;-71
2021/10/08 08:37:35;;;;;;;33.83;8.93;;;;;;;11.82;95.20;102167.13;4888172;29;20039;-72
2021/10/08 08:40:22;;;;;;;35.85;8.45;;;;;;;11.70;96.13;102183.75;4873655;29;20089;-72
2021/10/08 08:43:10;;;;;;;45.05;8.30;;;;;;;11.63;95.49;102170.63;4884699;29;20044;-71
2021/10/08 08:45:56;;;;;;;29.00;7.97;;;;;;;11.58;96.99;102170.56;4884371;29;20033;-72
2021/10/08 08:48:42;;;;;;;33.55;9.18;;;;;;;11.65;95.92;102174.13;4870422;29;20033;-71
2021/10/08 08:51:29;;;;;;;35.72;8.95;;;;;;;11.43;96.82;102180.16;4884294;29;20028;-72
2021/10/08 08:54:14;;;;;;;40.58;9.40;;;;;;;11.59;96.60;102172.34;4870602;29;20056;-70
2021/10/08 08:57:18;;;;;;;32.33;9.85;;;;;;;11.94;93.75;102165.38;4883569;29;20036;-72
2021/10/08 09:00:12;;;;;;;37.40;9.65;;;;;;;11.82;92.97;102160.13;4870539;29;20033;-71
2021/10/08 09:03:03;;;;;;;34.38;11.30;;;;;;;11.98;93.16;102145.25;4884095;29;20037;-72
2021/10/08 09:05:49;;;;;;;27.35;8.90;;;;;;;11.87;93.21;102137.38;4883332;29;20036;-72
2021/10/08 09:08:35;;;;;;;24.77;8.68;;;;;;;11.81;90.20;102150.50;4884102;29;20044;-71
2021/10/08 09:11:36;;;;;;;27.75;7.20;;;;;;;11.85;90.91;102154.88;4870648;29;20427;-71
2021/10/08 09:14:27;;;;;;;25.55;8.35;;;;;;;11.77;88.90;102159.25;4870489;29;20033;-71
2021/10/08 09:17:16;;;;;;;31.05;8.98;;;;;;;11.88;90.42;102162.75;4870066;29;20063;-72
2021/10/08 09:20:13;;;;;;;27.77;8.27;;;;;;;11.65;89.97;102174.13;4870773;29;20065;-71
2021/10/08 09:22:59;;;;;;;33.90;8.10;;;;;;;11.71;90.22;102171.50;4883843;29;20033;-71
2021/10/08 09:25:45;;;;;;;25.55;7.47;;;;;;;11.77;88.61;102177.63;4883099;29;20403;-72
2021/10/08 09:28:31;;;;;;;26.75;7.72;;;;;;;11.64;88.14;102165.38;4884228;29;20386;-72
2021/10/08 09:31:18;;;;;;;38.75;8.30;;;;;;;11.75;88.96;102176.75;4870197;29;20534;-71
2021/10/08 09:34:12;;;;;;;30.25;7.35;;;;;;;11.73;88.73;102157.50;4883623;29;20048;-72
2021/10/08 09:37:03;;;;;;;33.30;7.88;;;;;;;11.49;89.68;102157.44;4883814;29;20430;-72
2021/10/08 09:39:51;;;;;;;22.27;7.47;;;;;;;11.60;90.12;102137.38;4883030;29;20369;-72
2021/10/08 09:42:37;;;;;;;27.17;7.57;;;;;;;11.46;91.60;102133.81;4882895;29;20462;-72
2021/10/08 09:45:50;;;;;;;25.95;8.20;;;;;;;11.40;93.12;102130.28;4883754;29;20040;-73
2021/10/08 09:48:43;;;;;;;43.67;8.57;;;;;;;11.58;91.03;102131.19;4883109;29;20107;-72
2021/10/08 09:51:30;;;;;;;34.30;8.02;;;;;;;11.76;90.44;102109.34;4883387;29;20472;-72
2021/10/08 09:54:16;;;;;;;27.77;8.73;;;;;;;12.04;88.57;102106.72;4883052;29;20060;-72
2021/10/08 09:57:02;;;;;;;31.33;7.95;;;;;;;12.06;87.24;102110.19;4869326;29;20035;-72
2021/10/08 09:59:49;;;;;;;25.60;9.48;;;;;;;12.19;87.38;102109.31;4882988;29;20071;-72
2021/10/08 10:02:35;;;;;;;41.97;10.18;;;;;;;12.07;86.50;102100.59;4883216;29;20040;-71
2021/10/08 10:05:24;;;;;;;28.13;7.97;;;;;;;11.97;87.50;102102.34;4882914;29;20029;-72
2021/10/08 10:08:11;;;;;;;32.65;9.18;;;;;;;11.82;89.37;102098.88;4869920;29;20045;-72
2021/10/08 10:10:58;;;;;;;33.55;8.65;;;;;;;12.03;87.83;102104.09;4883138;29;20064;-72
2021/10/08 10:13:46;;;;;;;36.20;8.68;;;;;;;12.14;88.26;102124.19;4883028;29;20097;-72
2021/10/08 10:16:33;;;;;;;47.42;9.23;;;;;;;12.49;84.65;102139.91;4883017;29;20032;-71
2021/10/08 10:19:21;;;;;;;34.58;8.45;;;;;;;12.10;86.48;102147.88;4882762;29;20029;-72
2021/10/08 10:22:07;;;;;;;41.10;9.45;;;;;;;12.45;85.81;102140.78;4883033;29;20033;-71
2021/10/08 10:24:54;;;;;;;35.53;9.10;;;;;;;11.94;86.49;102139.09;4882618;29;20028;-72
2021/10/08 10:27:42;;;;;;;34.50;8.73;;;;;;;11.94;87.92;102136.47;4869135;29;20025;-72
2021/10/08 10:30:28;;;;;;;34.40;9.18;;;;;;;12.04;87.90;102137.34;4882489;29;20092;-73
2021/10/08 10:33:15;;;;;;;45.70;10.57;;;;;;;12.13;86.21;102143.47;4883618;29;20064;-73
2021/10/08 10:36:01;;;;;;;30.42;8.68;;;;;;;11.86;87.48;102143.47;4882626;29;20374;-72
2021/10/08 10:38:47;;;;;;;31.10;8.43;;;;;;;11.84;89.47;102144.38;4883947;29;20033;-72
2021/10/08 10:41:32;;;;;;;28.50;8.65;;;;;;;12.00;88.41;102131.25;4882481;29;20040;-72
2021/10/08 10:44:29;;;;;;;40.63;9.18;;;;;;;11.60;92.00;102129.50;4882332;29;20048;-72
2021/10/08 10:47:20;;;;;;;36.08;9.32;;;;;;;11.64;94.08;102131.25;4868895;29;20021;-73
2021/10/08 10:50:19;;;;;;;37.33;9.00;;;;;;;11.73;94.28;102130.38;4882795;29;20093;-73
2021/10/08 10:53:05;;;;;;;26.92;8.32;;;;;;;11.70;95.71;102139.09;4882685;29;20073;-72
2021/10/08 10:55:51;;;;;;;30.27;8.50;;;;;;;11.46;98.58;102130.31;4882332;29;20021;-71
2021/10/08 10:58:36;;;;;;;28.55;8.32;;;;;;;11.44;100.00;102143.44;4869329;29;20108;-71
2021/10/08 11:01:22;;;;;;;41.33;10.38;;;;;;;11.36;100.00;102141.66;4868864;29;20423;-71
2021/10/08 11:04:27;;;;;;;33.47;9.80;;;;;;;11.34;100.00;102159.16;4868799;29;20036;-72
2021/10/08 11:07:18;;;;;;;39.42;10.18;;;;;;;11.31;100.00;102149.53;4881607;29;20057;-71
2021/10/08 11:10:03;;;;;;;35.53;11.07;;;;;;;11.24;100.00;102141.63;4881685;29;20033;-71
2021/10/08 11:12:49;;;;;;;35.45;11.25;;;;;;;11.57;100.00;102139.09;4882443;29;20429;-72
2021/10/08 11:15:35;;;;;;;38.85;10.52;;;;;;;11.60;100.00;102134.75;4868666;29;20033;-71
2021/10/08 11:18:36;;;;;;;30.05;11.15;;;;;;;11.63;100.00;102128.63;4881909;29;20222;-71
2021/10/08 11:21:25;;;;;;;33.65;10.70;;;;;;;11.48;100.00;102132.06;4882623;29;20044;-71
2021/10/08 11:24:22;;;;;;;44.95;9.93;;;;;;;11.42;100.00;102118.94;4867860;29;20033;-72
2021/10/08 11:27:08;;;;;;;32.72;10.50;;;;;;;11.49;100.00;102123.31;4882495;29;20129;-71
2021/10/08 11:30:03;;;;;;;40.20;9.80;;;;;;;11.35;100.00;102118.91;4868187;29;20079;-73
2021/10/08 11:32:52;;;;;;;37.50;9.93;;;;;;;11.08;100.00;102124.09;4882020;29;20033;-71
2021/10/08 11:35:38;;;;;;;32.97;10.20;;;;;;;11.13;100.00;102125.88;4881898;29;20029;-73
2021/10/08 11:38:24;;;;;;;35.17;10.55;;;;;;;11.33;100.00;102121.53;4882296;29;20041;-72
2021/10/08 11:41:23;;;;;;;40.03;10.43;;;;;;;11.08;100.00;102122.34;4881684;29;20108;-71
2021/10/08 11:52:47;;;;;;;35.75;9.68;;;;;;;11.18;100.00;102141.63;4882030;29;20029;-72
2021/10/08 11:55:40;;;;;;;35.40;10.23;;;;;;;11.50;100.00;102139.94;4881277;29;20060;-72
2021/10/08 11:58:26;;;;;;;36.35;9.52;;;;;;;11.40;100.00;102131.19;4881255;29;20021;-72
2021/10/08 12:01:20;;;;;;;34.47;9.93;;;;;;;11.33;100.00;102123.31;4881575;29;20028;-73
2021/10/08 12:04:18;;;;;;;35.75;9.60;;;;;;;11.43;100.00;102125.94;4881636;29;20033;-71
2021/10/08 12:07:13;;;;;;;39.45;8.75;;;;;;;11.51;100.00;102124.22;4867472;29;20113;-72
2021/10/08 12:10:06;;;;;;;36.67;8.40;;;;;;;11.48;100.00;102121.56;4881931;29;20041;-71
2021/10/08 12:12:54;;;;;;;45.03;9.40;;;;;;;11.72;100.00;102119.00;4881528;29;20025;-71
2021/10/08 12:15:40;;;;;;;45.22;9.13;;;;;;;11.72;100.00;102111.13;4868044;29;20470;-73
2021/10/08 12:18:26;;;;;;;31.33;10.75;;;;;;;11.75;100.00;102123.38;4881401;29;20025;-71
2021/10/08 12:21:15;;;;;;;35.53;10.65;;;;;;;11.64;100.00;102123.38;4880436;29;20037;-73
2021/10/08 12:24:02;;;;;;;37.58;13.15;;;;;;;11.72;100.00;102124.25;4885104;29;20041;-72
2021/10/08 12:26:56;;;;;;;50.00;14.15;;;;;;;11.80;100.00;102116.34;4884873;29;20365;-72
2021/10/08 12:29:50;;;;;;;46.70;13.77;;;;;;;11.92;100.00;102127.75;4871072;29;20032;-72
2021/10/08 12:32:36;;;;;;;54.78;14.00;;;;;;;11.96;100.00;102131.22;4871539;29;20033;-71
2021/10/08 12:35:21;;;;;;;50.47;13.50;;;;;;;11.84;100.00;102126.88;4884062;29;20021;-72
2021/10/08 12:38:07;;;;;;;46.63;12.98;;;;;;;11.94;100.00;102130.38;4870942;29;20029;-72
2021/10/08 12:40:53;;;;;;;48.42;11.65;;;;;;;11.94;100.00;102135.63;4884837;29;20037;-72
2021/10/08 12:43:39;;;;;;;51.40;11.27;;;;;;;11.58;100.00;102133.81;4884262;29;20096;-71
2021/10/08 12:46:31;;;;;;;43.53;11.40;;;;;;;11.86;100.00;102130.34;4870909;29;20057;-72
2021/10/08 12:49:17;;;;;;;48.08;11.88;;;;;;;11.70;100.00;102136.47;4883650;29;20101;-71
2021/10/08 12:52:03;;;;;;;47.72;11.57;;;;;;;11.89;100.00;102124.25;4884509;29;20040;-72